»·PEaware :: N728CS KASE-KLAS

N728CS :: KASE-KLAS

FLIGHT INFORMATION

Flight Status: Arrived
Operator: Privately registered:
United States
More flights under this callsign
Pilot: Chandler S. (807)
Aircraft: CESSNA 550 CITATION 2/S2/BRAVO
(C550)
More flights by this aircraft type
Origin: KASE Aspen-Pitkin Co/Sardy
United States
Destination: KLAS McCarran Intl
United States
More flights between these airports :: More routes between these airports
Route: LINDZ9 JNC V8 HVE GGAPP SITEE4
File this flight plan on PilotEdge
Remarks:
Altitude:
(Current/Filed)
34,000ft
Speed:
(Current/Filed)
400kts
Departed: 13-Jan-21 01:21 PM
Arrived: 13-Jan-21 02:50 PM
Distance/Time
Traveled:
437nm/1:29
Distance/Time
To Go:
Arrived

Flight Plot

Page will automatically refresh every two minutes.

Flight plan parsing failed; only flown route is shown


Map Options




Map Legend


Flown Route
Filed Route
Departure Airport
Arrival Airport
Navaid (VOR, NDB)
Fix

Horizontal Profiles

Position Reports

Time Latitude Longitude Heading Altitude Ground
Speed
13-Jan-21 13:03 39.221704 -106.865882 249 7841ft 0kts
13-Jan-21 13:04 39.221704 -106.865882 249 7841ft 0kts
13-Jan-21 13:05 39.221704 -106.865882 249 7841ft 0kts
13-Jan-21 13:06 39.221704 -106.865882 249 7841ft 0kts
13-Jan-21 13:07 39.221704 -106.865882 249 7841ft 0kts
13-Jan-21 13:08 39.221704 -106.865882 249 7841ft 0kts
13-Jan-21 13:09 39.221704 -106.865882 249 7841ft 0kts
13-Jan-21 13:10 39.221704 -106.865882 249 7841ft 0kts
13-Jan-21 13:11 39.221704 -106.865882 249 7841ft 0kts
13-Jan-21 13:12 39.221704 -106.865882 249 7841ft 0kts
13-Jan-21 13:13 39.221704 -106.865882 249 7841ft 0kts
13-Jan-21 13:14 39.221704 -106.865882 249 7841ft 0kts
13-Jan-21 13:15 39.221480 -106.865972 161 7841ft 6kts
13-Jan-21 13:16 39.218825 -106.865577 159 7841ft 10kts
13-Jan-21 13:17 39.215277 -106.863878 158 7841ft 16kts
13-Jan-21 13:18 39.212140 -106.862492 194 7841ft 0kts
13-Jan-21 13:19 39.212086 -106.862512 197 7841ft 3kts
13-Jan-21 13:20 39.228515 -106.871268 340 8712ft 138kts
13-Jan-21 13:21 39.270585 -106.877549 329 11995ft 167kts
13-Jan-21 13:22 39.296008 -106.928535 293 15203ft 181kts
13-Jan-21 13:23 39.316447 -106.979527 292 18366ft 139kts
13-Jan-21 13:24 39.331114 -107.015729 291 20654ft 115kts
13-Jan-21 13:25 39.350485 -107.064256 293 21285ft 208kts
13-Jan-21 13:26 39.381638 -107.144401 284 21867ft 270kts
13-Jan-21 13:27 39.373416 -107.239040 258 24072ft 261kts
13-Jan-21 13:28 39.355914 -107.327348 259 26253ft 247kts
13-Jan-21 13:29 39.339676 -107.410141 260 28423ft 229kts
13-Jan-21 13:30 39.325657 -107.481463 261 30455ft 208kts
13-Jan-21 13:31 39.312193 -107.549743 262 32601ft 185kts
13-Jan-21 13:32 39.300545 -107.608734 263 34326ft 170kts
13-Jan-21 13:33 39.286947 -107.678625 261 34357ft 229kts
13-Jan-21 13:34 39.269418 -107.766556 260 34353ft 273kts
13-Jan-21 13:35 39.249415 -107.866335 260 34349ft 299kts
13-Jan-21 13:36 39.228081 -107.972415 259 34343ft 313kts
13-Jan-21 13:37 39.205735 -108.083022 259 34344ft 322kts
13-Jan-21 13:38 39.182872 -108.195607 259 34351ft 326kts
13-Jan-21 13:39 39.159697 -108.309146 259 34354ft 328kts
13-Jan-21 13:40 39.136396 -108.422712 259 34353ft 329kts
13-Jan-21 13:42 39.112829 -108.536954 259 34352ft 329kts
13-Jan-21 13:43 39.089237 -108.650692 259 34351ft 329kts
13-Jan-21 13:44 39.065319 -108.765258 258 34361ft 331kts
13-Jan-21 13:45 39.032234 -108.876813 252 34360ft 335kts
13-Jan-21 13:46 38.996118 -108.987088 252 34361ft 337kts
13-Jan-21 13:47 38.959598 -109.098115 252 34377ft 338kts
13-Jan-21 13:48 38.922779 -109.209660 252 34391ft 339kts
13-Jan-21 13:49 38.885816 -109.321247 252 34388ft 341kts
13-Jan-21 13:50 38.848524 -109.433330 253 34387ft 342kts
13-Jan-21 13:51 38.811914 -109.542933 253 34384ft 343kts
13-Jan-21 13:52 38.774303 -109.655098 252 34386ft 343kts
13-Jan-21 13:53 38.736427 -109.767639 252 34395ft 344kts
13-Jan-21 13:54 38.698291 -109.880475 252 34393ft 345kts
13-Jan-21 13:55 38.660137 -109.993199 252 34391ft 345kts
13-Jan-21 13:56 38.621752 -110.105618 252 34391ft 346kts
13-Jan-21 13:57 38.583575 -110.217379 252 34395ft 345kts
13-Jan-21 13:58 38.544995 -110.329813 252 34406ft 345kts
13-Jan-21 13:58 38.512920 -110.422922 252 34415ft 344kts
13-Jan-21 14:00 38.467841 -110.553309 252 34415ft 344kts
13-Jan-21 14:01 38.429059 -110.665028 251 34421ft 344kts
13-Jan-21 14:02 38.375501 -110.768534 239 34424ft 355kts
13-Jan-21 14:02 38.325259 -110.851834 239 34424ft 356kts
13-Jan-21 14:03 38.264779 -110.951588 239 34422ft 356kts
13-Jan-21 14:05 38.194145 -111.067729 239 34421ft 356kts
13-Jan-21 14:05 38.143689 -111.150434 239 34420ft 356kts
13-Jan-21 14:06 38.082981 -111.249683 239 34419ft 356kts
13-Jan-21 14:07 38.022429 -111.348390 239 34408ft 356kts
13-Jan-21 14:08 37.962213 -111.446240 239 34384ft 356kts
13-Jan-21 14:09 37.901394 -111.544768 239 34372ft 356kts
13-Jan-21 14:10 37.840266 -111.643494 239 34365ft 355kts
13-Jan-21 14:11 37.779335 -111.741643 239 34377ft 356kts
13-Jan-21 14:12 37.718314 -111.839605 239 34377ft 356kts
13-Jan-21 14:13 37.657001 -111.937746 239 34375ft 355kts
13-Jan-21 14:14 37.597252 -112.033298 239 34372ft 355kts
13-Jan-21 14:15 37.536502 -112.131174 242 34371ft 352kts
13-Jan-21 14:16 37.485273 -112.235204 246 34372ft 348kts
13-Jan-21 14:17 37.437061 -112.336005 246 34371ft 349kts
13-Jan-21 14:18 37.386986 -112.440233 246 34372ft 348kts
13-Jan-21 14:19 37.336810 -112.544344 246 34369ft 348kts
13-Jan-21 14:20 37.288171 -112.644909 246 34233ft 353kts
13-Jan-21 14:21 37.237090 -112.750328 245 32757ft 354kts
13-Jan-21 14:22 37.185693 -112.856000 245 31289ft 359kts
13-Jan-21 14:23 37.135019 -112.959824 246 29863ft 362kts
13-Jan-21 14:24 37.082163 -113.067783 247 28385ft 366kts
13-Jan-21 14:25 37.028417 -113.177213 246 26907ft 373kts
13-Jan-21 14:26 36.975235 -113.285063 245 25630ft 377kts
13-Jan-21 14:27 36.920077 -113.396612 244 24553ft 379kts
13-Jan-21 14:28 36.864415 -113.508806 244 23435ft 380kts
13-Jan-21 14:29 36.810380 -113.617351 244 22337ft 382kts
13-Jan-21 14:30 36.755365 -113.727393 243 21214ft 366kts
13-Jan-21 14:31 36.701836 -113.834305 243 19882ft 364kts
13-Jan-21 14:32 36.649910 -113.937606 243 18517ft 356kts
13-Jan-21 14:33 36.600521 -114.035344 243 16902ft 319kts
13-Jan-21 14:34 36.554119 -114.126996 243 15374ft 307kts
13-Jan-21 14:35 36.507342 -114.218767 242 14408ft 339kts
13-Jan-21 14:36 36.455910 -114.319050 242 13493ft 347kts
13-Jan-21 14:37 36.403704 -114.420644 241 12592ft 349kts
13-Jan-21 14:38 36.353655 -114.517783 241 11874ft 343kts
13-Jan-21 14:39 36.305298 -114.611416 241 10772ft 302kts
13-Jan-21 14:40 36.261912 -114.695638 240 9582ft 281kts
13-Jan-21 14:41 36.220644 -114.775665 240 8286ft 271kts
13-Jan-21 14:42 36.182121 -114.849746 239 6985ft 242kts
13-Jan-21 14:43 36.148085 -114.916988 252 6029ft 211kts
13-Jan-21 14:44 36.139779 -114.985336 266 5117ft 187kts
13-Jan-21 14:45 36.134607 -115.044983 266 4110ft 154kts
13-Jan-21 14:46 36.133824 -115.089646 273 3411ft 128kts
13-Jan-21 14:47 36.130087 -115.128717 243 2961ft 118kts
13-Jan-21 14:48 36.106999 -115.152190 205 2453ft 101kts
13-Jan-21 14:49 36.089972 -115.162041 206 2186ft 13kts
13-Jan-21 14:50 36.089062 -115.164912 204 2186ft 11kts
13-Jan-21 14:51 36.084193 -115.167697 203 2186ft 23kts
13-Jan-21 14:52 36.081438 -115.171270 269 2186ft 9kts
13-Jan-21 14:53 36.080648 -115.171708 86 2186ft 0kts

Navigation Log

Ident Type
Flight plan parsing failed, navigation log unavailable